createdAt,value
2023-04-28T00:01:14.082Z,24.40
2023-04-28T00:03:42.755Z,27.10
2023-04-28T00:06:11.346Z,30.95
2023-04-28T00:08:38.862Z,29.17
2023-04-28T00:11:10.453Z,27.58
2023-04-28T00:13:38.710Z,23.13
2023-04-28T00:16:06.044Z,25.92
2023-04-28T00:18:33.786Z,27.05
2023-04-28T00:21:01.720Z,29.20
2023-04-28T00:23:29.150Z,26.65
2023-04-28T00:25:57.538Z,28.52
2023-04-28T00:30:55.709Z,27.15
2023-04-28T00:33:23.040Z,23.90
2023-04-28T00:35:50.151Z,31.10
2023-04-28T00:38:17.819Z,26.52
2023-04-28T00:40:44.626Z,22.02
2023-04-28T00:43:11.962Z,22.50
2023-04-28T00:45:38.938Z,26.25
2023-04-28T00:48:08.592Z,27.67
2023-04-28T00:50:36.608Z,30.08
2023-04-28T00:53:04.918Z,25.15
2023-04-28T00:55:35.240Z,21.67
2023-04-28T00:58:03.103Z,32.40
2023-04-28T01:00:30.030Z,23.35
2023-04-28T01:02:58.309Z,24.02
2023-04-28T01:05:27.107Z,23.33
2023-04-28T01:07:54.471Z,24.17
2023-04-28T01:10:21.863Z,24.73
2023-04-28T01:12:49.658Z,20.58
2023-04-28T01:15:19.124Z,24.75
2023-04-28T01:17:48.144Z,26.77
2023-04-28T01:20:15.589Z,24.45
2023-04-28T01:22:43.189Z,23.15
2023-04-28T01:25:11.168Z,29.35
2023-04-28T01:27:38.301Z,22.35
2023-04-28T01:30:06.974Z,31.00
2023-04-28T01:32:34.381Z,24.15
2023-04-28T01:35:02.918Z,25.00
2023-04-28T01:37:30.616Z,24.25
2023-04-28T01:39:57.490Z,30.83
2023-04-28T01:42:25.800Z,23.00
2023-04-28T01:44:53.099Z,20.45
2023-04-28T01:47:20.669Z,27.20
2023-04-28T01:49:48.479Z,24.92
2023-04-28T01:52:15.814Z,26.42
2023-04-28T01:54:43.098Z,26.38
2023-04-28T01:57:10.555Z,28.13
2023-04-28T01:59:38.128Z,28.95
2023-04-28T02:02:06.829Z,27.92
2023-04-28T02:04:34.102Z,25.95
2023-04-28T02:07:01.471Z,21.20
2023-04-28T02:09:28.418Z,27.45
2023-04-28T02:12:00.285Z,24.55
2023-04-28T02:14:27.885Z,22.35
2023-04-28T02:16:55.012Z,22.42
2023-04-28T02:19:22.239Z,24.15
2023-04-28T02:21:49.298Z,30.38
2023-04-28T02:24:16.415Z,28.13
2023-04-28T02:26:44.125Z,28.75
2023-04-28T02:29:11.055Z,32.42
2023-04-28T02:31:38.803Z,26.95
2023-04-28T02:34:05.848Z,24.73
2023-04-28T02:36:33.854Z,23.88
2023-04-28T02:39:01.461Z,29.05
2023-04-28T02:41:31.170Z,28.02
2023-04-28T02:43:58.181Z,33.35
2023-04-28T02:46:25.837Z,29.40
2023-04-28T02:48:52.731Z,23.63
2023-04-28T02:51:20.288Z,26.50
2023-04-28T02:53:47.186Z,33.35
2023-04-28T02:56:14.817Z,26.00
2023-04-28T02:58:41.754Z,27.33
2023-04-28T03:01:09.149Z,25.02
2023-04-28T03:03:36.363Z,32.88
2023-04-28T03:06:04.192Z,27.48
2023-04-28T03:08:31.250Z,23.17
2023-04-28T03:10:58.637Z,27.98
2023-04-28T03:13:25.760Z,29.00
2023-04-28T03:15:53.303Z,22.98
2023-04-28T03:18:20.322Z,28.98
2023-04-28T03:20:48.597Z,22.55
2023-04-28T03:23:15.743Z,32.65
2023-04-28T03:25:43.171Z,27.35
2023-04-28T03:28:10.844Z,30.08
2023-04-28T03:30:38.367Z,33.70
2023-04-28T03:33:05.571Z,24.98
2023-04-28T03:35:33.236Z,25.90
2023-04-28T03:38:00.134Z,25.67
2023-04-28T03:40:27.986Z,27.65
2023-04-28T03:43:15.105Z,33.75
2023-04-28T03:46:05.037Z,37.38
2023-04-28T03:48:33.053Z,31.08
2023-04-28T03:51:00.385Z,25.75
2023-04-28T03:53:27.540Z,62.67
2023-04-28T03:55:55.171Z,40.35
2023-04-28T03:58:22.294Z,25.88
2023-04-28T04:00:50.486Z,28.10
2023-04-28T04:03:17.743Z,26.25
2023-04-28T04:05:45.889Z,34.80
2023-04-28T04:08:13.478Z,23.90
2023-04-28T04:10:40.710Z,24.63
2023-04-28T04:13:08.163Z,23.90
2023-04-28T04:15:36.074Z,25.33
2023-04-28T04:18:05.564Z,21.52
2023-04-28T04:20:50.593Z,27.40
2023-04-28T04:23:18.145Z,27.92
2023-04-28T04:25:46.065Z,28.60
2023-04-28T04:28:13.343Z,24.42
2023-04-28T04:30:40.781Z,22.73
2023-04-28T04:33:08.346Z,26.98
2023-04-28T04:35:35.893Z,28.70
2023-04-28T04:38:03.733Z,32.67
2023-04-28T04:40:31.153Z,32.85
2023-04-28T04:42:59.480Z,36.38
2023-04-28T04:45:28.605Z,28.27
2023-04-28T04:47:56.373Z,27.33
2023-04-28T04:50:24.200Z,27.77
2023-04-28T04:52:51.341Z,33.42
2023-04-28T04:55:19.283Z,27.35
2023-04-28T04:57:46.509Z,27.50
2023-04-28T05:00:22.950Z,26.42
2023-04-28T05:02:50.105Z,30.92
2023-04-28T05:05:21.832Z,27.77
2023-04-28T05:08:02.590Z,24.60
2023-04-28T05:10:30.107Z,28.67
2023-04-28T05:12:57.129Z,27.63
2023-04-28T05:15:24.855Z,27.80
2023-04-28T05:18:17.928Z,23.60
2023-04-28T05:20:46.079Z,28.60
2023-04-28T05:23:14.671Z,31.35
2023-04-28T05:25:42.564Z,26.38
2023-04-28T05:28:10.723Z,30.83
2023-04-28T05:30:38.036Z,32.08
2023-04-28T05:33:05.411Z,27.02
2023-04-28T05:35:32.762Z,27.58
2023-04-28T05:38:00.171Z,30.98
2023-04-28T05:40:28.295Z,27.75
2023-04-28T05:42:56.444Z,28.35
2023-04-28T05:45:23.873Z,25.30
2023-04-28T05:47:51.095Z,30.33
2023-04-28T05:50:19.000Z,26.45
2023-04-28T05:52:45.918Z,26.40
2023-04-28T05:55:14.439Z,22.95
2023-04-28T05:57:52.510Z,28.65
2023-04-28T06:00:22.292Z,29.75
2023-04-28T06:02:52.034Z,27.60
2023-04-28T06:05:19.689Z,26.15
2023-04-28T06:07:49.972Z,32.38
2023-04-28T06:10:19.064Z,31.42
2023-04-28T06:12:46.124Z,35.08
2023-04-28T06:15:14.001Z,29.13
2023-04-28T06:17:41.662Z,26.55
2023-04-28T06:20:11.255Z,22.02
2023-04-28T06:22:38.699Z,26.55
2023-04-28T06:25:08.139Z,28.23
2023-04-28T06:27:46.203Z,24.88
2023-04-28T06:30:19.992Z,20.83
2023-04-28T06:32:47.685Z,29.60
2023-04-28T06:35:16.779Z,21.10
2023-04-28T06:37:44.523Z,22.40
2023-04-28T06:40:11.890Z,25.88
2023-04-28T06:42:42.917Z,22.73
2023-04-28T06:45:13.210Z,14.05
2023-04-28T06:47:41.020Z,18.30
2023-04-28T06:50:10.389Z,16.38
2023-04-28T06:52:39.700Z,16.85
2023-04-28T06:55:11.733Z,17.13
2023-04-28T06:57:39.044Z,18.83
2023-04-28T07:00:06.960Z,18.58
2023-04-28T07:02:35.335Z,15.75
2023-04-28T07:05:03.932Z,13.98
2023-04-28T07:07:31.888Z,15.18
2023-04-28T07:10:00.505Z,14.57
2023-04-28T07:12:27.846Z,15.32
2023-04-28T07:14:55.992Z,13.52
2023-04-28T07:17:23.165Z,19.33
2023-04-28T07:19:51.033Z,18.45
2023-04-28T07:22:18.412Z,18.88
2023-04-28T07:24:45.906Z,15.80
2023-04-28T07:27:13.177Z,12.52
2023-04-28T07:29:40.379Z,12.40
2023-04-28T07:32:10.715Z,10.82
2023-04-28T07:34:38.574Z,9.98
2023-04-28T07:37:05.893Z,10.55
2023-04-28T07:39:36.777Z,13.05
2023-04-28T07:42:04.172Z,11.43
2023-04-28T07:44:31.726Z,11.18
2023-04-28T07:47:00.864Z,11.98
2023-04-28T07:49:31.890Z,18.33
2023-04-28T07:51:59.433Z,13.90
2023-04-28T07:54:26.665Z,7.57
2023-04-28T07:56:54.268Z,9.23
2023-04-28T07:59:21.395Z,7.72
2023-04-28T08:01:48.916Z,7.90
2023-04-28T08:04:17.862Z,13.35
2023-04-28T08:06:45.840Z,8.68
2023-04-28T08:09:13.149Z,8.25
2023-04-28T08:11:40.197Z,10.82
2023-04-28T08:14:07.953Z,9.90
2023-04-28T08:16:38.484Z,5.63
2023-04-28T08:19:06.209Z,7.18
2023-04-28T08:21:34.273Z,7.60
2023-04-28T08:24:02.187Z,6.85
2023-04-28T08:26:29.376Z,11.30
2023-04-28T08:28:57.064Z,4.10
2023-04-28T08:31:24.355Z,12.07
2023-04-28T08:33:53.165Z,5.68
2023-04-28T08:36:21.304Z,4.03
2023-04-28T08:38:48.812Z,13.45
2023-04-28T08:41:16.960Z,7.13
2023-04-28T08:43:45.696Z,8.15
2023-04-28T08:46:14.974Z,10.70
2023-04-28T08:48:47.584Z,7.03
2023-04-28T08:51:17.201Z,4.53
2023-04-28T08:54:11.762Z,6.13
2023-04-28T08:56:39.307Z,4.85
2023-04-28T08:59:07.769Z,9.63
2023-04-28T09:01:34.849Z,9.35
2023-04-28T09:04:04.246Z,7.50
2023-04-28T09:06:40.679Z,9.90
2023-04-28T09:09:34.159Z,13.68
2023-04-28T09:12:05.247Z,6.35
2023-04-28T09:14:37.428Z,9.75
2023-04-28T09:17:13.042Z,9.48
2023-04-28T09:19:43.328Z,4.88
2023-04-28T09:22:21.797Z,8.05
2023-04-28T09:24:53.284Z,8.80
2023-04-28T09:27:27.486Z,5.28
2023-04-28T09:29:55.103Z,7.63
2023-04-28T09:32:23.650Z,7.05
2023-04-28T09:34:57.343Z,6.20
2023-04-28T09:37:27.534Z,7.07
2023-04-28T09:39:55.475Z,10.00
2023-04-28T09:42:37.498Z,6.38
2023-04-28T09:45:10.208Z,7.22
2023-04-28T09:47:46.838Z,5.00
2023-04-28T09:50:17.499Z,8.77
2023-04-28T09:52:56.933Z,8.23
2023-04-28T09:55:25.279Z,6.53
2023-04-28T09:57:54.866Z,6.38
2023-04-28T10:00:23.139Z,5.75
2023-04-28T10:02:51.962Z,9.05
2023-04-28T10:05:23.221Z,7.57
2023-04-28T10:07:51.537Z,11.18
2023-04-28T10:10:19.443Z,4.90
2023-04-28T10:12:47.233Z,5.43
2023-04-28T10:15:14.549Z,5.70
2023-04-28T10:17:41.902Z,4.78
2023-04-28T10:20:11.135Z,4.53
2023-04-28T10:22:56.261Z,9.13
2023-04-28T10:25:35.580Z,10.73
2023-04-28T10:28:07.927Z,5.45
2023-04-28T10:30:36.763Z,7.78
2023-04-28T10:33:16.204Z,10.13
2023-04-28T10:35:47.955Z,6.35
2023-04-28T10:38:21.501Z,6.32
2023-04-28T10:40:51.056Z,7.22
2023-04-28T10:43:33.237Z,4.72
2023-04-28T10:46:04.074Z,5.00
2023-04-28T10:48:34.604Z,6.63
2023-04-28T10:51:05.598Z,6.72
2023-04-28T10:53:54.322Z,6.30
2023-04-28T10:56:25.399Z,3.75
2023-04-28T10:58:53.762Z,6.05
2023-04-28T11:01:25.269Z,3.30
2023-04-28T11:04:08.287Z,8.35
2023-04-28T11:06:37.489Z,4.97
2023-04-28T11:09:33.517Z,5.40
2023-04-28T11:12:01.145Z,6.68
2023-04-28T11:14:35.117Z,5.18
2023-04-28T11:17:11.495Z,6.55
2023-04-28T11:19:44.386Z,6.22
2023-04-28T11:22:20.335Z,8.68
2023-04-28T11:24:59.075Z,4.55
2023-04-28T11:27:27.922Z,12.43
2023-04-28T11:29:54.904Z,7.65
2023-04-28T11:32:28.664Z,6.07
2023-04-28T11:34:56.082Z,6.78
2023-04-28T11:37:23.708Z,6.50
2023-04-28T11:39:51.515Z,5.10
2023-04-28T11:42:19.004Z,7.32
2023-04-28T11:44:52.094Z,5.95
2023-04-28T11:47:31.563Z,7.60
2023-04-28T11:49:59.285Z,5.28
2023-04-28T11:52:27.505Z,5.80
2023-04-28T11:54:56.776Z,4.82
2023-04-28T11:57:24.268Z,5.15
2023-04-28T11:59:51.710Z,8.00
2023-04-28T12:02:28.544Z,6.68
2023-04-28T12:04:57.136Z,8.77
2023-04-28T12:07:25.491Z,4.22
2023-04-28T12:10:13.423Z,6.03
2023-04-28T12:12:50.797Z,12.45
2023-04-28T12:15:21.049Z,4.25
2023-04-28T12:17:50.922Z,6.57
2023-04-28T12:20:38.699Z,8.35
2023-04-28T12:23:08.042Z,4.80
2023-04-28T12:25:48.127Z,5.60
2023-04-28T12:28:16.537Z,4.72
2023-04-28T12:30:44.091Z,5.63
2023-04-28T12:33:25.756Z,6.60
2023-04-28T12:35:55.498Z,12.52
2023-04-28T12:38:23.847Z,7.03
2023-04-28T12:40:51.119Z,4.85
2023-04-28T12:43:19.290Z,8.88
2023-04-28T12:45:46.825Z,7.20
2023-04-28T12:48:16.705Z,7.47
2023-04-28T12:50:44.340Z,5.70
2023-04-28T12:53:12.180Z,6.95
2023-04-28T12:55:40.687Z,11.70
2023-04-28T12:58:08.027Z,6.25
2023-04-28T13:00:35.772Z,8.70
2023-04-28T13:03:03.191Z,11.93
2023-04-28T13:05:32.256Z,7.25
2023-04-28T13:08:00.755Z,5.32
2023-04-28T13:10:29.481Z,10.73
2023-04-28T13:12:58.158Z,6.90
2023-04-28T13:15:25.778Z,9.80
2023-04-28T13:17:52.937Z,9.00
2023-04-28T13:20:20.070Z,6.05
2023-04-28T13:22:48.045Z,6.22
2023-04-28T13:25:15.912Z,7.55
2023-04-28T13:27:43.705Z,9.25
2023-04-28T13:30:11.996Z,7.25
2023-04-28T13:32:40.272Z,5.15
2023-04-28T13:35:09.241Z,9.98
2023-04-28T13:37:42.611Z,10.13
2023-04-28T13:40:11.801Z,8.95
2023-04-28T13:42:39.600Z,9.45
2023-04-28T13:45:07.259Z,11.63
2023-04-28T13:47:35.079Z,6.68
2023-04-28T13:50:02.608Z,9.73
2023-04-28T13:52:30.502Z,9.25
2023-04-28T13:54:57.980Z,7.00
2023-04-28T13:57:25.673Z,7.45
2023-04-28T13:59:53.308Z,7.28
2023-04-28T14:02:20.827Z,9.98
2023-04-28T14:04:49.160Z,7.97
2023-04-28T14:07:17.063Z,7.85
2023-04-28T14:09:44.563Z,7.18
2023-04-28T14:12:13.979Z,12.27
2023-04-28T14:14:41.612Z,9.07
2023-04-28T14:17:10.471Z,7.15
2023-04-28T14:19:37.906Z,11.50
2023-04-28T14:22:05.621Z,10.95
2023-04-28T14:24:32.971Z,10.10
2023-04-28T14:27:00.551Z,10.45
2023-04-28T14:29:27.721Z,13.23
2023-04-28T14:31:55.262Z,8.13
2023-04-28T14:34:22.839Z,8.00
2023-04-28T14:36:51.094Z,7.70
2023-04-28T14:39:18.719Z,8.68
2023-04-28T14:41:46.427Z,7.30
2023-04-28T14:44:13.654Z,6.43
2023-04-28T14:46:41.424Z,15.77
2023-04-28T14:49:09.537Z,11.60
2023-04-28T14:51:36.877Z,13.13
2023-04-28T14:54:04.521Z,8.25
2023-04-28T14:56:33.350Z,9.82
2023-04-28T14:59:01.150Z,9.10
2023-04-28T15:01:29.218Z,7.82
2023-04-28T15:03:56.290Z,7.88
2023-04-28T15:06:23.624Z,10.85
2023-04-28T15:08:50.903Z,13.77
2023-04-28T15:11:18.751Z,10.23
2023-04-28T15:13:46.044Z,9.13
2023-04-28T15:16:13.826Z,14.57
2023-04-28T15:18:41.065Z,7.38
2023-04-28T15:21:08.796Z,10.43
2023-04-28T15:23:36.066Z,10.07
2023-04-28T15:26:03.699Z,6.70
2023-04-28T15:28:31.377Z,18.15
2023-04-28T15:30:58.590Z,8.70
2023-04-28T15:33:25.825Z,9.43
2023-04-28T15:35:53.082Z,11.07
2023-04-28T15:38:20.706Z,9.75
2023-04-28T15:40:49.941Z,7.55
2023-04-28T15:43:17.142Z,9.73
2023-04-28T15:45:47.342Z,11.93
2023-04-28T15:48:15.484Z,8.63
2023-04-28T15:50:44.631Z,13.90
2023-04-28T15:53:11.869Z,6.75
2023-04-28T15:55:39.375Z,8.70
2023-04-28T15:58:06.532Z,7.30
2023-04-28T16:00:34.400Z,9.68
2023-04-28T16:03:02.025Z,10.20
2023-04-28T16:05:29.922Z,8.85
2023-04-28T16:07:57.035Z,9.20
2023-04-28T16:10:24.560Z,17.73
2023-04-28T16:12:51.818Z,8.13
2023-04-28T16:15:19.395Z,10.52
2023-04-28T16:17:46.424Z,8.57
2023-04-28T16:20:13.963Z,8.07
2023-04-28T16:22:41.874Z,13.30
2023-04-28T16:25:11.747Z,11.45
2023-04-28T16:27:40.640Z,9.85
2023-04-28T16:30:09.570Z,12.70
2023-04-28T16:32:38.529Z,7.85
2023-04-28T16:35:10.827Z,9.23
2023-04-28T16:37:41.033Z,8.88
2023-04-28T16:40:09.593Z,22.60
2023-04-28T16:42:37.184Z,17.45
2023-04-28T16:45:05.410Z,14.02
2023-04-28T16:47:33.526Z,10.00
2023-04-28T16:50:01.043Z,13.35
2023-04-28T16:52:28.062Z,11.88
2023-04-28T16:54:56.074Z,15.55
2023-04-28T16:57:23.184Z,12.55
2023-04-28T16:59:51.713Z,11.80
2023-04-28T17:02:19.207Z,14.98
2023-04-28T17:04:47.165Z,8.07
2023-04-28T17:07:14.894Z,15.93
2023-04-28T17:09:42.577Z,12.60
2023-04-28T17:12:10.053Z,10.20
2023-04-28T17:14:38.889Z,9.40
2023-04-28T17:17:05.992Z,6.95
2023-04-28T17:19:33.317Z,9.27
2023-04-28T17:22:00.909Z,11.75
2023-04-28T17:24:28.586Z,8.82
2023-04-28T17:26:55.980Z,11.52
2023-04-28T17:29:24.740Z,10.35
2023-04-28T17:31:53.761Z,14.55
2023-04-28T17:34:21.587Z,12.35
2023-04-28T17:36:48.734Z,10.18
2023-04-28T17:39:16.792Z,10.45
2023-04-28T17:41:45.374Z,11.55
2023-04-28T17:44:13.275Z,12.23
2023-04-28T17:46:40.699Z,7.85
2023-04-28T17:49:08.872Z,14.30
2023-04-28T17:51:37.527Z,13.18
2023-04-28T17:54:09.719Z,11.32
2023-04-28T17:56:38.454Z,13.05
2023-04-28T17:59:06.400Z,13.00
2023-04-28T18:01:35.249Z,12.40
2023-04-28T18:04:02.722Z,10.00
2023-04-28T18:06:30.605Z,10.95
2023-04-28T18:08:57.999Z,20.55
2023-04-28T18:11:27.284Z,14.52
2023-04-28T18:13:54.964Z,10.45
2023-04-28T18:16:22.674Z,12.15
2023-04-28T18:18:50.177Z,10.23
2023-04-28T18:21:17.708Z,13.38
2023-04-28T18:23:46.696Z,10.45
2023-04-28T18:26:13.984Z,13.65
2023-04-28T18:28:41.585Z,24.10
2023-04-28T18:31:09.060Z,13.38
2023-04-28T18:33:36.641Z,12.50
2023-04-28T18:36:07.332Z,18.88
2023-04-28T18:38:36.511Z,17.10
2023-04-28T18:41:17.954Z,15.50
2023-04-28T18:43:45.746Z,18.52
2023-04-28T18:46:12.877Z,13.30
2023-04-28T18:48:40.864Z,17.17
2023-04-28T18:51:08.245Z,18.65
2023-04-28T18:53:36.328Z,21.13
2023-04-28T18:56:03.552Z,13.35
2023-04-28T18:58:31.386Z,13.70
2023-04-28T19:00:58.406Z,12.13
2023-04-28T19:03:26.328Z,18.02
2023-04-28T19:05:53.872Z,14.82
2023-04-28T19:08:21.424Z,14.48
2023-04-28T19:10:49.117Z,19.20
2023-04-28T19:13:17.610Z,14.48
2023-04-28T19:15:44.729Z,13.82
2023-04-28T19:18:12.823Z,16.60
2023-04-28T19:20:42.365Z,14.40
2023-04-28T19:23:10.151Z,16.38
2023-04-28T19:25:37.698Z,15.98
2023-04-28T19:28:06.298Z,17.80
2023-04-28T19:30:33.273Z,14.10
2023-04-28T19:33:00.992Z,14.40
2023-04-28T19:35:28.596Z,13.98
2023-04-28T19:37:56.029Z,15.20
2023-04-28T19:40:23.172Z,21.55
2023-04-28T19:42:51.288Z,17.08
2023-04-28T19:45:18.322Z,22.33
2023-04-28T19:47:45.751Z,21.13
2023-04-28T19:50:12.720Z,22.48
2023-04-28T19:52:40.287Z,24.23
2023-04-28T19:55:08.189Z,18.95
2023-04-28T19:57:36.026Z,18.20
2023-04-28T20:00:04.505Z,23.95
2023-04-28T20:02:35.670Z,23.42
2023-04-28T20:05:04.062Z,21.33
2023-04-28T20:07:31.836Z,23.30
2023-04-28T20:09:58.777Z,21.95
2023-04-28T20:12:26.672Z,23.77
2023-04-28T20:14:54.498Z,21.38
2023-04-28T20:17:22.268Z,27.67
2023-04-28T20:19:49.665Z,26.58
2023-04-28T20:22:17.274Z,22.70
2023-04-28T20:24:44.609Z,28.92
2023-04-28T20:27:12.595Z,26.02
2023-04-28T20:29:39.926Z,19.00
2023-04-28T20:32:08.015Z,31.88
2023-04-28T20:34:37.022Z,24.17
2023-04-28T20:37:06.548Z,22.95
2023-04-28T20:39:34.311Z,26.88
2023-04-28T20:42:02.596Z,25.00
2023-04-28T20:44:29.871Z,23.42
2023-04-28T20:46:57.331Z,28.45
2023-04-28T20:49:25.170Z,24.65
2023-04-28T20:51:52.650Z,24.65
2023-04-28T20:54:20.207Z,20.92
2023-04-28T20:56:47.583Z,22.73
2023-04-28T20:59:14.739Z,20.00
2023-04-28T21:01:42.179Z,26.63
2023-04-28T21:04:10.153Z,25.35
2023-04-28T21:06:38.277Z,23.67
2023-04-28T21:09:06.174Z,25.15
2023-04-28T21:11:34.096Z,24.85
2023-04-28T21:14:01.622Z,19.50
2023-04-28T21:16:28.944Z,24.83
2023-04-28T21:18:56.835Z,21.90
2023-04-28T21:21:24.103Z,25.33
2023-04-28T21:23:51.117Z,19.98
2023-04-28T21:26:20.655Z,25.90
2023-04-28T21:28:47.730Z,22.55
2023-04-28T21:31:15.435Z,23.75
2023-04-28T21:33:42.461Z,23.50
2023-04-28T21:36:09.753Z,25.85
2023-04-28T21:38:38.228Z,20.15
2023-04-28T21:41:07.776Z,27.92
2023-04-28T21:43:35.015Z,28.10
2023-04-28T21:46:02.924Z,24.67
2023-04-28T21:48:29.870Z,23.95
2023-04-28T21:50:58.376Z,23.45
2023-04-28T21:53:25.273Z,46.50
2023-04-28T21:55:52.956Z,27.20
2023-04-28T21:58:20.069Z,23.58
2023-04-28T22:00:48.050Z,24.40
2023-04-28T22:03:15.750Z,24.98
2023-04-28T22:05:46.836Z,28.67
2023-04-28T22:08:14.128Z,30.17
2023-04-28T22:10:44.286Z,29.10
2023-04-28T22:13:15.976Z,25.38
2023-04-28T22:15:43.644Z,25.35
2023-04-28T22:18:10.868Z,25.17
2023-04-28T22:20:38.574Z,25.30
2023-04-28T22:23:05.499Z,24.13
2023-04-28T22:25:32.887Z,29.25
2023-04-28T22:28:00.419Z,21.92
2023-04-28T22:30:30.878Z,25.98
2023-04-28T22:32:58.523Z,30.40
2023-04-28T22:35:26.168Z,30.05
2023-04-28T22:37:53.464Z,25.73
2023-04-28T22:40:20.774Z,26.52
2023-04-28T22:42:47.921Z,27.02
2023-04-28T22:45:15.811Z,24.77
2023-04-28T22:47:43.109Z,25.73
2023-04-28T22:50:11.595Z,24.38
2023-04-28T22:52:39.106Z,29.45
2023-04-28T22:55:07.321Z,30.52
2023-04-28T22:57:34.868Z,31.73
2023-04-28T23:00:04.148Z,23.33
2023-04-28T23:02:32.030Z,27.27
2023-04-28T23:05:00.043Z,24.98
2023-04-28T23:07:27.407Z,30.88
2023-04-28T23:09:54.963Z,21.05
2023-04-28T23:12:22.583Z,25.40
2023-04-28T23:14:50.019Z,23.48
2023-04-28T23:17:17.508Z,25.50
2023-04-28T23:19:44.857Z,23.30
2023-04-28T23:22:12.207Z,25.23
2023-04-28T23:24:40.149Z,28.90
2023-04-28T23:27:07.253Z,25.77
2023-04-28T23:29:35.943Z,25.77
2023-04-28T23:32:04.376Z,25.83
2023-04-28T23:34:31.744Z,26.33
2023-04-28T23:36:59.332Z,26.38
2023-04-28T23:39:30.250Z,23.75
2023-04-28T23:41:58.761Z,28.80
2023-04-28T23:44:26.253Z,22.70
2023-04-28T23:46:56.119Z,29.58
2023-04-28T23:49:24.257Z,23.38
2023-04-28T23:51:51.779Z,25.73
2023-04-28T23:54:19.897Z,27.52
2023-04-28T23:56:47.531Z,33.58
2023-04-28T23:59:15.102Z,22.40
